Time;durP1;ratioP1;P1;durP2;ratioP2;P2;SDS_P1;SDS_P2;PMS_P1;PMS_P2;Temp;Humidity;BMP_temperature;BMP_pressure;BME280_temperature;BME280_humidity;BME280_pressure;Samples;Min_cycle;Max_cycle;Signal;HPM_P1;HPM_P2
2023/07/04 00:02:15;;;;;;;;;;;;;;;;;;5090836;28;19920;-64
2023/07/04 00:04:41;;;;;;;;;;;;;;;;;;5090606;28;20192;-64
2023/07/04 00:07:07;;;;;;;;;;;;;;;;;;5090273;28;19952;-64
2023/07/04 00:09:33;;;;;;;;;;;;;;;;;;5090574;28;20012;-64
2023/07/04 00:11:59;;;;;;;;;;;;;;;;;;5090606;28;19924;-64
2023/07/04 00:14:25;;;;;;;;;;;;;;;;;;5071533;28;19981;-64
2023/07/04 00:16:51;;;;;;;;;;;;;;;;;;5090628;28;19931;-64
2023/07/04 00:19:17;;;;;;;;;;;;;;;;;;5090542;28;19932;-64
2023/07/04 00:21:43;;;;;;;;;;;;;;;;;;5071943;28;19928;-64
2023/07/04 00:24:09;;;;;;;;;;;;;;;;;;5090527;28;19958;-64
2023/07/04 00:26:35;;;;;;;;;;;;;;;;;;5076109;28;19928;-64
2023/07/04 00:29:01;;;;;;;;;;;;;;;;;;5069743;28;19925;-64
2023/07/04 00:31:28;;;;;;;;;;;;;;;;;;5079686;28;19920;-64
2023/07/04 00:33:54;;;;;;;;;;;;;;;;;;5090040;28;19927;-64
2023/07/04 00:36:20;;;;;;;;;;;;;;;;;;5089818;28;19923;-64
2023/07/04 00:38:49;;;;;;;;;;;;;;;;;;5092884;28;20413;-64
2023/07/04 00:41:15;;;;;;;;;;;;;;;;;;5094401;28;20425;-64
2023/07/04 00:43:41;;;;;;;;;;;;;;;;;;5094096;28;19924;-64
2023/07/04 00:46:07;;;;;;;;;;;;;;;;;;5094003;28;19951;-64
2023/07/04 00:48:35;;;;;;;;;;;;;;;;;;5094012;28;19928;-64
2023/07/04 00:51:04;;;;;;;;;;;;;;;;;;5094128;28;19986;-64
2023/07/04 00:53:30;;;;;;;;;;;;;;;;;;5093470;28;19921;-64
2023/07/04 00:55:58;;;;;;;;;;;;;;;;;;5093852;28;19920;-64
2023/07/04 00:58:24;;;;;;;;;;;;;;;;;;5094065;28;20409;-64
2023/07/04 01:00:50;;;;;;;;;;;;;;;;;;5093332;28;19967;-64
2023/07/04 01:03:16;;;;;;;;;;;;;;;;;;5093947;28;19920;-64
2023/07/04 01:05:42;;;;;;;;;;;;;;;;;;5093603;28;19993;-64
2023/07/04 01:08:08;;;;;;;;;;;;;;;;;;5093287;28;19920;-64
2023/07/04 01:10:34;;;;;;;;;;;;;;;;;;5093783;28;19973;-64
2023/07/04 01:13:00;;;;;;;;;;;;;;;;;;5075616;28;19979;-64
2023/07/04 01:15:28;;;;;;;;;;;;;;;;;;5093056;28;19932;-64
2023/07/04 01:17:54;;;;;;;;;;;;;;;;;;5093537;28;19924;-64
2023/07/04 01:20:20;;;;;;;;;;;;;;;;;;5093586;28;19924;-64
2023/07/04 01:22:46;;;;;;;;;;;;;;;;;;5092984;28;19920;-64
2023/07/04 01:25:13;;;;;;;;;;;;;;;;;;5090313;28;19924;-64
2023/07/04 01:27:40;;;;;;;;;;;;;;;;;;5072793;28;20307;-64
2023/07/04 01:30:06;;;;;;;;;;;;;;;;;;5072508;28;19928;-64
2023/07/04 01:32:34;;;;;;;;;;;;;;;;;;5091626;28;20090;-64
2023/07/04 01:35:00;;;;;;;;;;;;;;;;;;5093059;28;20285;-64
2023/07/04 01:37:29;;;;;;;;;;;;;;;;;;5092660;28;20356;-64
2023/07/04 01:39:57;;;;;;;;;;;;;;;;;;5093015;28;19924;-64
2023/07/04 01:42:23;;;;;;;;;;;;;;;;;;5093131;28;20334;-64
2023/07/04 01:44:51;;;;;;;;;;;;;;;;;;5092526;28;20436;-64
2023/07/04 01:47:18;;;;;;;;;;;;;;;;;;5093174;28;20019;-64
2023/07/04 01:49:44;;;;;;;;;;;;;;;;;;5092013;28;19925;-64
2023/07/04 01:52:10;;;;;;;;;;;;;;;;;;5072216;28;19921;-64
2023/07/04 01:54:36;;;;;;;;;;;;;;;;;;5072334;28;19955;-64
2023/07/04 01:57:02;;;;;;;;;;;;;;;;;;5072525;28;19924;-64
2023/07/04 01:59:28;;;;;;;;;;;;;;;;;;5072105;28;19963;-64
2023/07/04 02:01:55;;;;;;;;;;;;;;;;;;5054311;28;19925;-64
2023/07/04 02:04:21;;;;;;;;;;;;;;;;;;5072448;28;19927;-64
2023/07/04 02:06:46;;;;;;;;;;;;;;;;;;5071749;28;19925;-64
2023/07/04 02:09:13;;;;;;;;;;;;;;;;;;5072397;28;19978;-64
2023/07/04 02:11:39;;;;;;;;;;;;;;;;;;5072266;28;20336;-64
2023/07/04 02:14:05;;;;;;;;;;;;;;;;;;5053513;28;19925;-64
2023/07/04 02:16:31;;;;;;;;;;;;;;;;;;5072159;28;20363;-64
2023/07/04 02:18:57;;;;;;;;;;;;;;;;;;5072085;28;19921;-64
2023/07/04 02:21:26;;;;;;;;;;;;;;;;;;5071252;28;19951;-64
2023/07/04 02:23:52;;;;;;;;;;;;;;;;;;5071822;28;19920;-64
2023/07/04 02:26:18;;;;;;;;;;;;;;;;;;5083453;28;20018;-64
2023/07/04 02:28:44;;;;;;;;;;;;;;;;;;5091469;28;20084;-64
2023/07/04 02:31:10;;;;;;;;;;;;;;;;;;5092123;28;19920;-64
2023/07/04 02:33:36;;;;;;;;;;;;;;;;;;5092296;28;19928;-64
2023/07/04 02:36:02;;;;;;;;;;;;;;;;;;5091487;28;19947;-64
2023/07/04 02:38:28;;;;;;;;;;;;;;;;;;5092042;28;19920;-64
2023/07/04 02:40:54;;;;;;;;;;;;;;;;;;5091800;28;19943;-64
2023/07/04 02:43:20;;;;;;;;;;;;;;;;;;5091569;28;19982;-64
2023/07/04 02:45:46;;;;;;;;;;;;;;;;;;5091892;28;20068;-64
2023/07/04 02:48:12;;;;;;;;;;;;;;;;;;5073559;28;19920;-64
2023/07/04 02:50:38;;;;;;;;;;;;;;;;;;5091312;28;20271;-64
2023/07/04 02:53:04;;;;;;;;;;;;;;;;;;5091815;28;19927;-64
2023/07/04 02:55:30;;;;;;;;;;;;;;;;;;5091587;28;19988;-64
2023/07/04 02:57:56;;;;;;;;;;;;;;;;;;5091235;28;19924;-64
2023/07/04 03:00:22;;;;;;;;;;;;;;;;;;5091227;28;19943;-64
2023/07/04 03:02:48;;;;;;;;;;;;;;;;;;5091747;28;19920;-64
2023/07/04 03:05:14;;;;;;;;;;;;;;;;;;5072839;28;19943;-64
2023/07/04 03:07:40;;;;;;;;;;;;;;;;;;5091381;28;19923;-64
2023/07/04 03:10:06;;;;;;;;;;;;;;;;;;5091156;28;19959;-64
2023/07/04 03:12:32;;;;;;;;;;;;;;;;;;5090839;28;19930;-64
2023/07/04 03:14:58;;;;;;;;;;;;;;;;;;5091434;28;19924;-64
2023/07/04 03:17:24;;;;;;;;;;;;;;;;;;5091181;28;20010;-64
2023/07/04 03:19:50;;;;;;;;;;;;;;;;;;5090743;28;20318;-64
2023/07/04 03:22:15;;;;;;;;;;;;;;;;;;5091190;28;19931;-64
2023/07/04 03:24:41;;;;;;;;;;;;;;;;;;5091032;28;19946;-64
2023/07/04 03:27:09;;;;;;;;;;;;;;;;;;5071619;28;20002;-64
2023/07/04 03:29:35;;;;;;;;;;;;;;;;;;5052823;28;19924;-64
2023/07/04 03:32:02;;;;;;;;;;;;;;;;;;5066706;28;21285;-64
2023/07/04 03:34:28;;;;;;;;;;;;;;;;;;5090503;28;20676;-64
2023/07/04 03:36:54;;;;;;;;;;;;;;;;;;5090758;28;20053;-64
2023/07/04 03:39:20;;;;;;;;;;;;;;;;;;5090919;28;19924;-64
2023/07/04 03:41:46;;;;;;;;;;;;;;;;;;5090457;28;20023;-64
2023/07/04 03:44:12;;;;;;;;;;;;;;;;;;5090853;28;19969;-64
2023/07/04 03:46:38;;;;;;;;;;;;;;;;;;5090812;28;20000;-64
2023/07/04 03:49:04;;;;;;;;;;;;;;;;;;5090373;28;20023;-64
2023/07/04 03:51:30;;;;;;;;;;;;;;;;;;5090866;28;20414;-64
2023/07/04 03:53:56;;;;;;;;;;;;;;;;;;5090707;28;19924;-64
2023/07/04 03:56:22;;;;;;;;;;;;;;;;;;5090291;28;19954;-64
2023/07/04 03:58:48;;;;;;;;;;;;;;;;;;5090826;28;19951;-64
2023/07/04 04:01:14;;;;;;;;;;;;;;;;;;5090798;28;19920;-64
2023/07/04 04:03:40;;;;;;;;;;;;;;;;;;5089981;28;19924;-64
2023/07/04 04:06:06;;;;;;;;;;;;;;;;;;5090720;28;19927;-64
2023/07/04 04:08:32;;;;;;;;;;;;;;;;;;5090586;28;19954;-64
2023/07/04 04:10:57;;;;;;;;;;;;;;;;;;5072004;28;19928;-64
2023/07/04 04:13:23;;;;;;;;;;;;;;;;;;5092624;28;20072;-64
2023/07/04 04:15:50;;;;;;;;;;;;;;;;;;5094890;28;19920;-64
2023/07/04 04:18:16;;;;;;;;;;;;;;;;;;5094481;28;19976;-64
2023/07/04 04:20:42;;;;;;;;;;;;;;;;;;5076358;28;20662;-64
2023/07/04 04:23:08;;;;;;;;;;;;;;;;;;5076473;28;19920;-64
2023/07/04 04:25:38;;;;;;;;;;;;;;;;;;5088618;28;19920;-64
2023/07/04 04:28:04;;;;;;;;;;;;;;;;;;5074196;28;19924;-64
2023/07/04 04:30:30;;;;;;;;;;;;;;;;;;5075951;28;19924;-64
2023/07/04 04:32:55;;;;;;;;;;;;;;;;;;5094820;28;19927;-64
2023/07/04 04:35:21;;;;;;;;;;;;;;;;;;5094122;28;19924;-64
2023/07/04 04:37:47;;;;;;;;;;;;;;;;;;5094633;28;19990;-64
2023/07/04 04:40:13;;;;;;;;;;;;;;;;;;5076562;28;19934;-64
2023/07/04 04:42:39;;;;;;;;;;;;;;;;;;5094273;28;19926;-64
2023/07/04 04:45:07;;;;;;;;;;;;;;;;;;5094197;28;20382;-64
2023/07/04 04:47:33;;;;;;;;;;;;;;;;;;5094606;28;19924;-64
2023/07/04 04:50:00;;;;;;;;;;;;;;;;;;5093822;28;19928;-64
2023/07/04 04:52:29;;;;;;;;;;;;;;;;;;5094351;28;19931;-64
2023/07/04 04:54:55;;;;;;;;;;;;;;;;;;5076136;28;19928;-64
2023/07/04 04:57:21;;;;;;;;;;;;;;;;;;5093771;28;20385;-64
2023/07/04 04:59:49;;;;;;;;;;;;;;;;;;5094348;28;19924;-64
2023/07/04 05:02:15;;;;;;;;;;;;;;;;;;5094178;28;19930;-64
2023/07/04 05:04:41;;;;;;;;;;;;;;;;;;5093447;28;20322;-65
2023/07/04 05:07:07;;;;;;;;;;;;;;;;;;5080268;28;19924;-64
2023/07/04 05:09:33;;;;;;;;;;;;;;;;;;5093129;28;19932;-64
2023/07/04 05:12:00;;;;;;;;;;;;;;;;;;5095040;28;20396;-64
2023/07/04 05:14:26;;;;;;;;;;;;;;;;;;5075533;28;20368;-65
2023/07/04 05:16:52;;;;;;;;;;;;;;;;;;5093720;28;19973;-64
2023/07/04 05:19:18;;;;;;;;;;;;;;;;;;5100170;28;19919;-64
2023/07/04 05:21:44;;;;;;;;;;;;;;;;;;5113869;28;19919;-64
2023/07/04 05:24:10;;;;;;;;;;;;;;;;;;5112556;28;19924;-64
2023/07/04 05:26:37;;;;;;;;;;;;;;;;;;5099629;28;19935;-64
2023/07/04 05:29:04;;;;;;;;;;;;;;;;;;5113626;28;19938;-64
2023/07/04 05:31:32;;;;;;;;;;;;;;;;;;5112287;28;20073;-64
2023/07/04 05:33:58;;;;;;;;;;;;;;;;;;5113350;28;19920;-64
2023/07/04 05:36:24;;;;;;;;;;;;;;;;;;5113313;28;20358;-64
2023/07/04 05:38:50;;;;;;;;;;;;;;;;;;5113555;28;19969;-64
2023/07/04 05:41:16;;;;;;;;;;;;;;;;;;5112860;28;19920;-64
2023/07/04 05:43:42;;;;;;;;;;;;;;;;;;5103494;28;19924;-64
2023/07/04 05:46:08;;;;;;;;;;;;;;;;;;5091535;28;19926;-62
2023/07/04 05:48:34;;;;;;;;;;;;;;;;;;5092584;28;19924;-62
2023/07/04 05:51:00;;;;;;;;;;;;;;;;;;5089393;28;19931;-61
2023/07/04 05:53:26;;;;;;;;;;;;;;;;;;5113257;28;19923;-65
2023/07/04 05:55:52;;;;;;;;;;;;;;;;;;5111303;28;19924;-66
2023/07/04 05:58:17;;;;;;;;;;;;;;;;;;5113016;28;19927;-66
2023/07/04 06:00:43;;;;;;;;;;;;;;;;;;5094547;28;19927;-66
2023/07/04 06:03:09;;;;;;;;;;;;;;;;;;5092953;28;19924;-66
2023/07/04 06:05:35;;;;;;;;;;;;;;;;;;5092549;28;19935;-65
2023/07/04 06:08:01;;;;;;;;;;;;;;;;;;5086717;28;19946;-63
2023/07/04 06:10:27;;;;;;;;;;;;;;;;;;5112287;28;19924;-65
2023/07/04 06:12:53;;;;;;;;;;;;;;;;;;5096236;28;19947;-65
2023/07/04 06:15:19;;;;;;;;;;;;;;;;;;5083649;28;20007;-65
2023/07/04 06:17:45;;;;;;;;;;;;;;;;;;5112414;28;19942;-63
2023/07/04 06:20:11;;;;;;;;;;;;;;;;;;5098533;28;19967;-64
2023/07/04 06:22:37;;;;;;;;;;;;;;;;;;5082909;28;19925;-64
2023/07/04 06:25:04;;;;;;;;;;;;;;;;;;5085335;28;19928;-61
2023/07/04 06:27:30;;;;;;;;;;;;;;;;;;5079449;28;19924;-62
2023/07/04 06:29:56;;;;;;;;;;;;;;;;;;5092264;28;20496;-62
2023/07/04 06:32:22;;;;;;;;;;;;;;;;;;5106194;28;19920;-62
2023/07/04 06:34:48;;;;;;;;;;;;;;;;;;5107946;28;19924;-63
2023/07/04 06:37:14;;;;;;;;;;;;;;;;;;5090132;28;19928;-63
2023/07/04 06:39:40;;;;;;;;;;;;;;;;;;5110038;28;19924;-62
2023/07/04 06:42:06;;;;;;;;;;;;;;;;;;5111978;28;19932;-58
2023/07/04 06:44:32;;;;;;;;;;;;;;;;;;5091039;28;19924;-64
2023/07/04 06:46:58;;;;;;;;;;;;;;;;;;5090876;28;19969;-64
2023/07/04 06:49:24;;;;;;;;;;;;;;;;;;5091249;28;20069;-63
2023/07/04 06:51:50;;;;;;;;;;;;;;;;;;5091478;28;19920;-62
2023/07/04 06:54:16;;;;;;;;;;;;;;;;;;5090993;28;19924;-63
2023/07/04 06:56:42;;;;;;;;;;;;;;;;;;5084818;28;19920;-63
2023/07/04 06:59:10;;;;;;;;;;;;;;;;;;5091013;28;19947;-63
2023/07/04 07:01:38;;;;;;;;;;;;;;;;;;5089998;28;19935;-64
2023/07/04 07:04:06;;;;;;;;;;;;;;;;;;5083277;28;20003;-65
2023/07/04 07:06:32;;;;;;;;;;;;;;;;;;5085013;28;19931;-64
2023/07/04 07:08:58;;;;;;;;;;;;;;;;;;5080589;28;19928;-65
2023/07/04 07:11:25;;;;;;;;;;;;;;;;;;5090672;28;20287;-65
2023/07/04 07:13:51;;;;;;;;;;;;;;;;;;5067766;28;20732;-63
2023/07/04 07:16:16;;;;;;;;;;;;;;;;;;5085450;28;19928;-66
2023/07/04 07:18:42;;;;;;;;;;;;;;;;;;5089791;28;19924;-64
2023/07/04 07:21:08;;;;;;;;;;;;;;;;;;5090632;28;19946;-64
2023/07/04 07:23:34;;;;;;;;;;;;;;;;;;5093439;28;20110;-63
2023/07/04 07:26:00;;;;;;;;;;;;;;;;;;5091610;28;20061;-63
2023/07/04 07:28:26;;;;;;;;;;;;;;;;;;5098110;28;19928;-63
2023/07/04 07:30:52;;;;;;;;;;;;;;;;;;5102277;28;20024;-65
2023/07/04 07:33:18;;;;;;;;;;;;;;;;;;5090682;28;19943;-65
2023/07/04 07:35:44;;;;;;;;;;;;;;;;;;5097412;28;19990;-63
2023/07/04 07:38:10;;;;;;;;;;;;;;;;;;5084275;28;19946;-63
2023/07/04 07:40:36;;;;;;;;;;;;;;;;;;5104306;28;19934;-65
2023/07/04 07:43:02;;;;;;;;;;;;;;;;;;5079137;28;20089;-63
2023/07/04 07:45:28;;;;;;;;;;;;;;;;;;5091103;28;19924;-63
2023/07/04 07:47:54;;;;;;;;;;;;;;;;;;5099016;28;19951;-63
2023/07/04 07:50:19;;;;;;;;;;;;;;;;;;5104985;28;20015;-63
2023/07/04 07:52:45;;;;;;;;;;;;;;;;;;5108683;28;20010;-64
2023/07/04 07:55:11;;;;;;;;;;;;;;;;;;5106382;28;19923;-64
2023/07/04 07:57:37;;;;;;;;;;;;;;;;;;5071093;28;19924;-65
2023/07/04 08:00:03;;;;;;;;;;;;;;;;;;5095137;28;19924;-65
2023/07/04 08:02:29;;;;;;;;;;;;;;;;;;5081385;28;19921;-65
2023/07/04 08:04:55;;;;;;;;;;;;;;;;;;5071627;28;19959;-65
2023/07/04 08:07:21;;;;;;;;;;;;;;;;;;5083687;28;19924;-65
2023/07/04 08:09:47;;;;;;;;;;;;;;;;;;5089028;28;19964;-64
2023/07/04 08:12:13;;;;;;;;;;;;;;;;;;5089616;28;19932;-64
2023/07/04 08:14:39;;;;;;;;;;;;;;;;;;5089751;28;19946;-63
2023/07/04 08:17:05;;;;;;;;;;;;;;;;;;5108849;28;19930;-64
2023/07/04 08:19:31;;;;;;;;;;;;;;;;;;5107978;28;20723;-65
2023/07/04 08:21:57;;;;;;;;;;;;;;;;;;5086196;28;19939;-64
2023/07/04 08:24:25;;;;;;;;;;;;;;;;;;5065442;28;19928;-63
2023/07/04 08:26:51;;;;;;;;;;;;;;;;;;5067527;28;20347;-65
2023/07/04 08:29:17;;;;;;;;;;;;;;;;;;5086750;28;19932;-64
2023/07/04 08:31:43;;;;;;;;;;;;;;;;;;5090805;28;19963;-62
2023/07/04 08:34:12;;;;;;;;;;;;;;;;;;5110003;28;19923;-63
2023/07/04 08:36:39;;;;;;;;;;;;;;;;;;5105955;28;19920;-65
2023/07/04 08:39:05;;;;;;;;;;;;;;;;;;5071758;28;19931;-63
2023/07/04 08:41:31;;;;;;;;;;;;;;;;;;5109663;28;19938;-63
2023/07/04 08:43:57;;;;;;;;;;;;;;;;;;5098530;28;19920;-65
2023/07/04 08:46:23;;;;;;;;;;;;;;;;;;5099174;28;20278;-65
2023/07/04 08:48:49;;;;;;;;;;;;;;;;;;5103213;28;19924;-65
2023/07/04 08:51:15;;;;;;;;;;;;;;;;;;5096842;28;19924;-66
2023/07/04 08:53:41;;;;;;;;;;;;;;;;;;5089210;28;19974;-65
2023/07/04 08:56:07;;;;;;;;;;;;;;;;;;5061903;28;19952;-65
2023/07/04 08:58:33;;;;;;;;;;;;;;;;;;5081062;28;20640;-62
2023/07/04 09:00:59;;;;;;;;;;;;;;;;;;5111203;28;19923;-67
2023/07/04 09:03:25;;;;;;;;;;;;;;;;;;5108534;28;19959;-67
2023/07/04 09:05:51;;;;;;;;;;;;;;;;;;5087987;28;20389;-66
2023/07/04 09:08:17;;;;;;;;;;;;;;;;;;5081243;28;19919;-67
2023/07/04 09:10:43;;;;;;;;;;;;;;;;;;5112535;28;19932;-67
2023/07/04 09:13:09;;;;;;;;;;;;;;;;;;5090081;28;19928;-67
2023/07/04 09:15:35;;;;;;;;;;;;;;;;;;5092257;28;20305;-66
2023/07/04 09:18:01;;;;;;;;;;;;;;;;;;5113045;28;19924;-67
2023/07/04 09:20:27;;;;;;;;;;;;;;;;;;5099412;28;20007;-67
2023/07/04 09:22:53;;;;;;;;;;;;;;;;;;5056834;28;19978;-67
2023/07/04 09:25:19;;;;;;;;;;;;;;;;;;5100562;28;19923;-64
2023/07/04 09:27:45;;;;;;;;;;;;;;;;;;5076239;28;20447;-66
2023/07/04 09:30:12;;;;;;;;;;;;;;;;;;5098249;28;19934;-67
2023/07/04 09:32:38;;;;;;;;;;;;;;;;;;5095331;28;20350;-66
2023/07/04 09:35:04;;;;;;;;;;;;;;;;;;5091471;28;19920;-67
2023/07/04 09:37:30;;;;;;;;;;;;;;;;;;5097688;28;19951;-67
2023/07/04 09:39:56;;;;;;;;;;;;;;;;;;5091402;28;20019;-65
2023/07/04 09:42:22;;;;;;;;;;;;;;;;;;5092066;28;20010;-64
2023/07/04 09:44:48;;;;;;;;;;;;;;;;;;5097084;28;19920;-63
2023/07/04 09:47:14;;;;;;;;;;;;;;;;;;5102030;28;20277;-61
2023/07/04 09:49:40;;;;;;;;;;;;;;;;;;5110355;28;19923;-64
2023/07/04 09:52:07;;;;;;;;;;;;;;;;;;5068238;28;19982;-64
2023/07/04 09:54:33;;;;;;;;;;;;;;;;;;5086926;28;20006;-63
2023/07/04 09:56:59;;;;;;;;;;;;;;;;;;5094454;28;20048;-63
2023/07/04 09:59:26;;;;;;;;;;;;;;;;;;5089638;28;19927;-63
2023/07/04 10:01:52;;;;;;;;;;;;;;;;;;5111038;28;19960;-62
2023/07/04 10:04:18;;;;;;;;;;;;;;;;;;5099633;28;19936;-62
2023/07/04 10:06:44;;;;;;;;;;;;;;;;;;5091229;28;19924;-63
2023/07/04 10:09:10;;;;;;;;;;;;;;;;;;5090636;28;19993;-62
2023/07/04 10:11:40;;;;;;;;;;;;;;;;;;5089841;28;20014;-62
2023/07/04 10:14:08;;;;;;;;;;;;;;;;;;5091229;28;20415;-62
2023/07/04 10:16:34;;;;;;;;;;;;;;;;;;5103958;28;19924;-61
2023/07/04 10:19:00;;;;;;;;;;;;;;;;;;5111429;28;19924;-61
2023/07/04 10:21:26;;;;;;;;;;;;;;;;;;5088280;28;19920;-62
2023/07/04 10:23:52;;;;;;;;;;;;;;;;;;5097904;28;19928;-62
2023/07/04 10:26:18;;;;;;;;;;;;;;;;;;5099614;28;19962;-62
2023/07/04 10:28:47;;;;;;;;;;;;;;;;;;5095825;28;19946;-63
2023/07/04 10:31:14;;;;;;;;;;;;;;;;;;5103531;28;20014;-62
2023/07/04 10:33:40;;;;;;;;;;;;;;;;;;5090968;28;19924;-63
2023/07/04 10:36:06;;;;;;;;;;;;;;;;;;5094001;28;19924;-64
2023/07/04 10:38:32;;;;;;;;;;;;;;;;;;5111548;28;20267;-65
2023/07/04 10:40:59;;;;;;;;;;;;;;;;;;5093338;28;20011;-65
2023/07/04 10:43:25;;;;;;;;;;;;;;;;;;5089822;28;19924;-65
2023/07/04 10:45:51;;;;;;;;;;;;;;;;;;5090836;28;19931;-65
2023/07/04 10:48:17;;;;;;;;;;;;;;;;;;5072574;28;20003;-65
2023/07/04 10:50:43;;;;;;;;;;;;;;;;;;5059266;28;19932;-65
2023/07/04 10:53:09;;;;;;;;;;;;;;;;;;5096436;28;19979;-65
2023/07/04 10:55:35;;;;;;;;;;;;;;;;;;5090420;28;19963;-64
2023/07/04 10:58:01;;;;;;;;;;;;;;;;;;5074145;28;19923;-64
2023/07/04 11:00:27;;;;;;;;;;;;;;;;;;5090942;28;19920;-63
2023/07/04 11:02:53;;;;;;;;;;;;;;;;;;5091412;28;20287;-63
2023/07/04 11:05:19;;;;;;;;;;;;;;;;;;5090238;28;19931;-63
2023/07/04 11:07:44;;;;;;;;;;;;;;;;;;5090104;28;19924;-63
2023/07/04 11:10:10;;;;;;;;;;;;;;;;;;5090541;28;19947;-64
2023/07/04 11:12:37;;;;;;;;;;;;;;;;;;5097324;28;19923;-64
2023/07/04 11:15:03;;;;;;;;;;;;;;;;;;5110672;28;19920;-64
2023/07/04 11:17:30;;;;;;;;;;;;;;;;;;5090604;28;19963;-65
2023/07/04 11:19:56;;;;;;;;;;;;;;;;;;5090129;28;19931;-65
2023/07/04 11:22:21;;;;;;;;;;;;;;;;;;5089521;28;19923;-65
2023/07/04 11:24:50;;;;;;;;;;;;;;;;;;5090357;28;19955;-65
2023/07/04 11:27:16;;;;;;;;;;;;;;;;;;5090220;28;19931;-64
2023/07/04 11:29:42;;;;;;;;;;;;;;;;;;5089443;28;20570;-66
2023/07/04 11:32:08;;;;;;;;;;;;;;;;;;5095160;28;19923;-65
2023/07/04 11:34:34;;;;;;;;;;;;;;;;;;5090062;28;19973;-65
2023/07/04 11:37:00;;;;;;;;;;;;;;;;;;5080607;28;19920;-66
2023/07/04 11:39:26;;;;;;;;;;;;;;;;;;5110347;28;19947;-66
2023/07/04 11:41:51;;;;;;;;;;;;;;;;;;5093229;28;20015;-65
2023/07/04 11:44:17;;;;;;;;;;;;;;;;;;5094281;28;20060;-65
2023/07/04 11:46:43;;;;;;;;;;;;;;;;;;5090162;28;19928;-65
2023/07/04 11:49:09;;;;;;;;;;;;;;;;;;5104770;28;19961;-65
2023/07/04 11:51:35;;;;;;;;;;;;;;;;;;5094131;28;19920;-65
2023/07/04 11:54:01;;;;;;;;;;;;;;;;;;5087395;28;19924;-66
2023/07/04 11:56:27;;;;;;;;;;;;;;;;;;5094681;28;19920;-65
2023/07/04 11:58:53;;;;;;;;;;;;;;;;;;5089537;28;20153;-64
2023/07/04 12:01:19;;;;;;;;;;;;;;;;;;5106380;28;19928;-65
2023/07/04 12:03:45;;;;;;;;;;;;;;;;;;5110001;28;19924;-65
2023/07/04 12:06:11;;;;;;;;;;;;;;;;;;5092887;28;19974;-63
2023/07/04 12:08:37;;;;;;;;;;;;;;;;;;5098535;28;19930;-64
2023/07/04 12:11:04;;;;;;;;;;;;;;;;;;5110461;28;19927;-64
2023/07/04 12:13:30;;;;;;;;;;;;;;;;;;5103664;28;19924;-64
2023/07/04 12:15:56;;;;;;;;;;;;;;;;;;5105304;28;19924;-63
2023/07/04 12:18:23;;;;;;;;;;;;;;;;;;5107883;28;19924;-64
2023/07/04 12:20:49;;;;;;;;;;;;;;;;;;5102954;28;19920;-64
2023/07/04 12:23:15;;;;;;;;;;;;;;;;;;5109935;28;19978;-64
2023/07/04 12:25:41;;;;;;;;;;;;;;;;;;5102639;28;19960;-64
2023/07/04 12:28:07;;;;;;;;;;;;;;;;;;5093837;28;19924;-64
2023/07/04 12:30:33;;;;;;;;;;;;;;;;;;5089137;28;20156;-64
2023/07/04 12:32:59;;;;;;;;;;;;;;;;;;5089412;28;19924;-64
2023/07/04 12:35:25;;;;;;;;;;;;;;;;;;5092453;28;19973;-64
2023/07/04 12:37:51;;;;;;;;;;;;;;;;;;5113197;28;19963;-63
2023/07/04 12:40:17;;;;;;;;;;;;;;;;;;5113097;28;20010;-65
2023/07/04 12:42:43;;;;;;;;;;;;;;;;;;5112870;28;20007;-63
2023/07/04 12:45:10;;;;;;;;;;;;;;;;;;5107404;28;19931;-63
2023/07/04 12:47:36;;;;;;;;;;;;;;;;;;5114172;28;19925;-65
2023/07/04 12:50:02;;;;;;;;;;;;;;;;;;5097172;28;20457;-65
2023/07/04 12:52:27;;;;;;;;;;;;;;;;;;5096823;28;19932;-65
2023/07/04 12:54:53;;;;;;;;;;;;;;;;;;5075503;28;20014;-64
2023/07/04 12:57:19;;;;;;;;;;;;;;;;;;5103189;28;19988;-65
2023/07/04 12:59:45;;;;;;;;;;;;;;;;;;5114163;28;19923;-63
2023/07/04 13:02:12;;;;;;;;;;;;;;;;;;5097101;28;19924;-65
2023/07/04 13:04:38;;;;;;;;;;;;;;;;;;5088691;28;20394;-65
2023/07/04 13:07:04;;;;;;;;;;;;;;;;;;5114321;28;19923;-63
2023/07/04 13:09:30;;;;;;;;;;;;;;;;;;5102157;28;19924;-65
2023/07/04 13:11:57;;;;;;;;;;;;;;;;;;5091713;28;19992;-65
2023/07/04 13:14:22;;;;;;;;;;;;;;;;;;5105167;28;19970;-66
2023/07/04 13:16:48;;;;;;;;;;;;;;;;;;5094534;28;19963;-65
2023/07/04 13:19:14;;;;;;;;;;;;;;;;;;5100633;28;19974;-66
2023/07/04 13:21:40;;;;;;;;;;;;;;;;;;5082814;28;19989;-66
2023/07/04 13:24:06;;;;;;;;;;;;;;;;;;5107399;28;19920;-66
2023/07/04 13:26:32;;;;;;;;;;;;;;;;;;5101308;28;19947;-66
2023/07/04 13:28:58;;;;;;;;;;;;;;;;;;5097752;28;19935;-66
2023/07/04 13:31:24;;;;;;;;;;;;;;;;;;5093546;28;19924;-65
2023/07/04 13:33:50;;;;;;;;;;;;;;;;;;5106838;28;20370;-65
2023/07/04 13:36:17;;;;;;;;;;;;;;;;;;5112623;28;19943;-64
2023/07/04 15:34:22;;;;;;;4.50;1.40;;;;;;;;;;6229167;22;1262273;-64
2023/07/04 15:37:08;;;;;;;7.10;1.10;;;;;;;;;;6244380;23;20048;-65
2023/07/04 15:39:34;;;;;;;6.05;1.38;;;;;;;;;;6244519;23;20024;-65
2023/07/04 15:42:00;;;;;;;3.80;1.40;;;;;;;;;;6216005;23;20658;-65
2023/07/04 15:44:27;;;;;;;4.13;1.50;;;;;;;;;;6243094;23;20434;-65
2023/07/04 15:46:53;;;;;;;5.32;1.60;;;;;;;;;;6242638;23;20201;-65
2023/07/04 15:49:19;;;;;;;6.75;1.40;;;;;;;;;;6243109;23;20016;-65
2023/07/04 15:51:45;;;;;;;4.40;1.90;;;;;;;;;;6243071;23;20449;-65
2023/07/04 15:54:11;;;;;;;2.25;1.25;;;;;;;;;;6242355;23;20016;-65
2023/07/04 15:56:37;;;;;;;4.35;1.88;;;;;;;;;;6242845;23;20020;-65
2023/07/04 15:59:03;;;;;;;5.03;1.58;;;;;;;;;;6242910;23;20016;-65
2023/07/04 16:01:29;;;;;;;4.53;1.30;;;;;;;;;;6242447;23;20015;-65
2023/07/04 16:03:59;;;;;;;4.68;1.40;;;;;;;;;;6242663;23;20044;-65
2023/07/04 16:06:25;;;;;;;4.93;1.67;;;;;;;;;;6242907;23;20040;-65
2023/07/04 16:08:51;;;;;;;4.38;1.52;;;;;;;;;;6241733;23;20596;-65
2023/07/04 16:11:19;;;;;;;5.55;1.73;;;;;;;;;;6243072;23;20023;-65
2023/07/04 16:13:45;;;;;;;5.60;1.77;;;;;;;;;;6242699;23;20065;-65
2023/07/04 16:16:11;;;;;;;7.28;2.05;;;;;;;;;;6242240;23;20087;-65
2023/07/04 16:18:38;;;;;;;4.70;1.60;;;;;;;;;;6242394;23;20149;-65
2023/07/04 16:21:05;;;;;;;4.80;1.30;;;;;;;;;;6242765;23;20325;-65
2023/07/04 16:23:31;;;;;;;5.55;1.40;;;;;;;;;;6241597;23;20016;-65
2023/07/04 16:25:58;;;;;;;4.63;1.50;;;;;;;;;;6241804;23;20027;-65
2023/07/04 16:28:24;;;;;;;5.35;1.27;;;;;;;;;;6242667;23;20096;-65
2023/07/04 16:30:50;;;;;;;6.35;1.75;;;;;;;;;;6242725;23;20020;-65
2023/07/04 16:33:16;;;;;;;2.95;1.30;;;;;;;;;;6242327;23;20079;-65
2023/07/04 16:35:43;;;;;;;2.92;1.23;;;;;;;;;;6220981;23;20016;-65
2023/07/04 16:38:09;;;;;;;4.60;1.45;;;;;;;;;;6212315;23;20466;-65
2023/07/04 16:40:36;;;;;;;3.88;1.75;;;;;;;;;;6211544;23;20012;-65
2023/07/04 16:43:03;;;;;;;6.20;1.63;;;;;;;;;;6212342;23;20008;-65
2023/07/04 16:45:29;;;;;;;3.70;1.60;;;;;;;;;;6211909;23;20023;-65
2023/07/04 16:47:55;;;;;;;4.30;1.58;;;;;;;;;;6211600;23;20019;-65
2023/07/04 16:50:21;;;;;;;6.35;1.55;;;;;;;;;;6212259;23;20616;-65
2023/07/04 16:52:47;;;;;;;10.20;1.58;;;;;;;;;;6212134;23;20055;-65
2023/07/04 16:55:13;;;;;;;4.22;1.60;;;;;;;;;;6211155;23;20320;-65
2023/07/04 16:57:39;;;;;;;7.70;1.65;;;;;;;;;;6211836;23;20018;-65
2023/07/04 17:00:05;;;;;;;6.68;1.50;;;;;;;;;;6212063;23;20352;-65
2023/07/04 17:02:31;;;;;;;7.55;1.50;;;;;;;;;;6211389;23;20520;-65
2023/07/04 17:04:57;;;;;;;3.13;1.50;;;;;;;;;;6212032;23;20023;-65
2023/07/04 17:07:24;;;;;;;5.32;1.85;;;;;;;;;;6211938;23;20019;-65
2023/07/04 17:09:50;;;;;;;6.18;1.67;;;;;;;;;;6211265;23;20039;-65
2023/07/04 17:12:16;;;;;;;6.13;1.48;;;;;;;;;;6211934;23;20423;-65
2023/07/04 17:14:42;;;;;;;4.97;1.80;;;;;;;;;;6211781;23;20055;-65
2023/07/04 17:17:08;;;;;;;5.35;1.50;;;;;;;;;;6211191;23;20012;-65
2023/07/04 17:19:34;;;;;;;5.97;1.90;;;;;;;;;;6211711;23;20096;-65
2023/07/04 17:22:00;;;;;;;7.65;2.15;;;;;;;;;;6211958;23;20139;-65
2023/07/04 17:24:26;;;;;;;4.95;1.73;;;;;;;;;;6184250;23;20609;-65
2023/07/04 17:26:52;;;;;;;5.30;1.50;;;;;;;;;;6211544;23;20457;-65
2023/07/04 17:29:18;;;;;;;4.63;1.30;;;;;;;;;;6212013;23;20048;-65
2023/07/04 17:31:44;;;;;;;7.25;1.77;;;;;;;;;;6211292;23;20094;-65
2023/07/04 17:34:10;;;;;;;7.43;2.10;;;;;;;;;;6211346;23;20080;-65
2023/07/04 17:36:37;;;;;;;7.03;2.13;;;;;;;;;;6211419;23;20024;-65
2023/07/04 17:39:03;;;;;;;7.32;1.83;;;;;;;;;;6210749;23;20048;-65
2023/07/04 17:41:29;;;;;;;6.85;1.70;;;;;;;;;;6211661;23;20092;-65
2023/07/04 17:43:55;;;;;;;5.65;1.45;;;;;;;;;;6211596;23;20426;-65
2023/07/04 17:46:21;;;;;;;5.45;1.70;;;;;;;;;;6211188;23;20048;-65
2023/07/04 17:48:48;;;;;;;7.68;1.80;;;;;;;;;;6211881;23;20024;-65
2023/07/04 17:51:16;;;;;;;7.72;1.90;;;;;;;;;;6211886;23;20030;-65
2023/07/04 17:53:42;;;;;;;5.45;1.38;;;;;;;;;;6211027;23;20096;-65
2023/07/04 17:56:09;;;;;;;4.95;1.48;;;;;;;;;;6211564;23;20357;-65
2023/07/04 17:58:36;;;;;;;5.60;1.85;;;;;;;;;;6184477;23;20039;-65
2023/07/04 18:01:04;;;;;;;7.18;1.80;;;;;;;;;;6210705;23;20046;-65
2023/07/04 18:03:31;;;;;;;6.75;1.63;;;;;;;;;;6211561;23;20428;-65
2023/07/04 18:05:58;;;;;;;9.00;1.70;;;;;;;;;;6211613;23;20640;-65
2023/07/04 18:08:25;;;;;;;7.43;1.63;;;;;;;;;;6211043;23;20008;-65
2023/07/04 18:10:51;;;;;;;6.57;2.35;;;;;;;;;;6211881;23;20019;-65
2023/07/04 18:13:17;;;;;;;6.30;1.73;;;;;;;;;;6211664;23;20021;-65